This is the latest recevied weather packets stored in our database for station/object KQ4WWD. If no packets are shown the sender has not sent any weather packets the latest 10 day(s).
| Time | Temp. | Humidity | Pressure | Rain* | Wind** | Luminosity | Snow |
|---|---|---|---|---|---|---|---|
| 1777048886 | 27.22° C | 56% | 1013.7 hPa | 0 mm | - | 762 W/m² | - |
| 1777048582 | 27.22° C | 59% | 1013.8 hPa | 0 mm | - | 163 W/m² | - |
| 1777048282 | 28.33° C | 56% | 1013.9 hPa | 0 mm | - | 151 W/m² | - |
| 1777047978 | 28.33° C | 55% | 1014.2 hPa | 0 mm | - | 720 W/m² | - |
| 1777047674 | 28.89° C | 54% | 1014 hPa | 0 mm | - | 764 W/m² | - |
| 1777047369 | 28.33° C | 56% | 1013.9 hPa | 0 mm | - | 720 W/m² | - |
| 1777047065 | 28.33° C | 56% | 1014 hPa | 0 mm | - | 658 W/m² | - |
| 1777046762 | 27.78° C | 56% | 1014.1 hPa | 0 mm | - | 626 W/m² | - |
| 1777046458 | 27.22° C | 57% | 1014.3 hPa | 0 mm | - | 646 W/m² | - |
| 1777046153 | 27.22° C | 56% | 1014.5 hPa | 0 mm | - | 691 W/m² | - |
| 1777045850 | 27.22° C | 57% | 1014.7 hPa | 0 mm | - | 717 W/m² | - |
| 1777045546 | 27.22° C | 58% | 1014.5 hPa | 0 mm | - | 719 W/m² | - |
| 1777045242 | 27.22° C | 58% | 1014.4 hPa | 0 mm | - | 720 W/m² | - |
| 1777044938 | 27.22° C | 58% | 1014.7 hPa | 0 mm | - | 722 W/m² | - |
| 1777044633 | 26.67° C | 61% | 1014.9 hPa | 0 mm | - | 725 W/m² | - |
| 1777044330 | 26.11° C | 61% | 1014.7 hPa | 0 mm | - | 744 W/m² | - |
| 1777044025 | 26.11° C | 60% | 1014.8 hPa | 0 mm | - | 744 W/m² | - |
| 1777043722 | 26.11° C | 62% | 1015 hPa | 0 mm | - | 753 W/m² | - |
| 1777043419 | 26.11° C | 61% | 1014.9 hPa | 0 mm | - | 754 W/m² | - |
| 1777043115 | 26.67° C | 60% | 1015 hPa | 0 mm | - | 772 W/m² | - |
| 1777042810 | 26.67° C | 62% | 1014.8 hPa | 0 mm | - | 760 W/m² | - |
| 1777042506 | 26.67° C | 62% | 1015.1 hPa | 0 mm | - | 753 W/m² | - |
| 1777042201 | 26.11° C | 63% | 1015.1 hPa | 0 mm | - | 714 W/m² | - |
| 1777041898 | 25.56° C | 64% | 1014.9 hPa | 0 mm | - | 739 W/m² | - |
| 1777041595 | 25.56° C | 64% | 1014.9 hPa | 0 mm | - | 720 W/m² | - |
* Rain latest hour (hover to see other rain measurements)
** Current wind speed in m/s (hover to see current wind gust speed)